createdAt,value
2022-10-24T00:01:18.553Z,10.52
2022-10-24T00:03:53.361Z,10.48
2022-10-24T00:06:27.042Z,10.44
2022-10-24T00:09:01.956Z,10.45
2022-10-24T00:11:36.066Z,10.44
2022-10-24T00:14:10.301Z,10.43
2022-10-24T00:16:43.923Z,10.39
2022-10-24T00:19:16.599Z,10.41
2022-10-24T00:21:50.670Z,10.36
2022-10-24T00:24:25.945Z,10.36
2022-10-24T00:27:01.254Z,10.33
2022-10-24T00:29:35.022Z,10.26
2022-10-24T00:32:09.625Z,10.21
2022-10-24T00:34:45.840Z,10.23
2022-10-24T00:39:55.210Z,10.23
2022-10-24T00:42:29.602Z,10.19
2022-10-24T00:45:03.865Z,10.19
2022-10-24T00:47:37.931Z,10.22
2022-10-24T00:50:16.860Z,10.21
2022-10-24T00:52:51.756Z,10.23
2022-10-24T00:55:26.207Z,10.25
2022-10-24T00:58:02.458Z,10.26
2022-10-24T01:00:38.024Z,10.25
2022-10-24T01:03:12.746Z,10.17
2022-10-24T01:06:02.770Z,10.14
2022-10-24T01:08:46.639Z,10.19
2022-10-24T01:11:22.072Z,10.19
2022-10-24T01:14:06.927Z,10.15
2022-10-24T01:16:49.058Z,10.19
2022-10-24T01:19:53.662Z,10.19
2022-10-24T01:22:32.580Z,10.19
2022-10-24T01:25:17.118Z,10.19
2022-10-24T01:28:03.985Z,10.15
2022-10-24T01:30:44.197Z,10.15
2022-10-24T01:33:28.256Z,10.17
2022-10-24T01:36:08.958Z,10.18
2022-10-24T01:38:48.958Z,10.16
2022-10-24T01:41:26.590Z,10.16
2022-10-24T01:44:03.849Z,10.10
2022-10-24T01:46:43.248Z,10.04
2022-10-24T01:49:20.035Z,10.08
2022-10-24T01:52:00.514Z,10.12
2022-10-24T01:54:36.251Z,10.10
2022-10-24T01:57:10.290Z,10.10
2022-10-24T01:59:50.376Z,10.06
2022-10-24T02:02:28.271Z,10.06
2022-10-24T02:05:07.387Z,10.11
2022-10-24T02:07:43.282Z,10.13
2022-10-24T02:10:23.907Z,10.17
2022-10-24T02:13:03.027Z,10.13
2022-10-24T02:15:41.590Z,10.13
2022-10-24T02:18:16.853Z,10.06
2022-10-24T02:20:56.239Z,10.05
2022-10-24T02:23:39.713Z,10.04
2022-10-24T02:26:20.243Z,10.01
2022-10-24T02:29:01.427Z,9.99
2022-10-24T02:31:40.520Z,9.93
2022-10-24T02:34:18.858Z,9.89
2022-10-24T02:36:55.822Z,9.82
2022-10-24T02:39:32.717Z,9.81
2022-10-24T02:42:09.040Z,9.83
2022-10-24T02:44:44.208Z,9.83
2022-10-24T02:47:23.116Z,9.80
2022-10-24T02:49:58.117Z,9.75
2022-10-24T02:52:32.469Z,9.70
2022-10-24T02:55:07.742Z,9.76
2022-10-24T02:57:42.207Z,9.73
2022-10-24T03:00:19.580Z,9.70
2022-10-24T03:02:53.276Z,9.69
2022-10-24T03:05:27.648Z,9.67
2022-10-24T03:08:03.057Z,9.71
2022-10-24T03:10:37.002Z,9.71
2022-10-24T03:13:11.207Z,9.75
2022-10-24T03:18:26.692Z,9.74
2022-10-24T03:21:00.557Z,9.76
2022-10-24T03:23:33.963Z,9.73
2022-10-24T03:26:05.990Z,9.69
2022-10-24T03:28:41.920Z,9.68
2022-10-24T03:31:15.905Z,9.71
2022-10-24T03:33:49.834Z,9.77
2022-10-24T03:36:24.775Z,9.84
2022-10-24T03:38:58.644Z,9.87
2022-10-24T03:41:34.033Z,9.86
2022-10-24T03:44:07.405Z,9.85
2022-10-24T03:46:41.588Z,9.81
2022-10-24T03:49:15.201Z,9.79
2022-10-24T03:51:49.516Z,9.76
2022-10-24T03:54:23.728Z,9.74
2022-10-24T03:56:58.113Z,9.75
2022-10-24T03:59:32.117Z,9.75
2022-10-24T04:02:06.803Z,9.76
2022-10-24T04:04:40.971Z,9.76
2022-10-24T04:07:14.739Z,9.76
2022-10-24T04:09:50.603Z,9.78
2022-10-24T04:12:24.705Z,9.75
2022-10-24T04:14:59.706Z,9.77
2022-10-24T04:17:36.227Z,9.72
2022-10-24T04:20:11.277Z,9.74
2022-10-24T04:22:45.650Z,9.77
2022-10-24T04:25:20.239Z,9.84
2022-10-24T04:27:53.911Z,9.88
2022-10-24T04:30:29.747Z,9.90
2022-10-24T04:33:03.960Z,9.93
2022-10-24T04:35:38.101Z,9.96
2022-10-24T04:38:11.969Z,9.96
2022-10-24T04:40:50.415Z,9.98
2022-10-24T04:43:25.556Z,10.00
2022-10-24T04:45:59.968Z,10.00
2022-10-24T04:48:34.186Z,10.03
2022-10-24T04:51:09.020Z,10.04
2022-10-24T04:53:44.118Z,10.07
2022-10-24T04:56:18.637Z,10.10
2022-10-24T04:58:53.579Z,10.13
2022-10-24T05:01:27.709Z,10.15
2022-10-24T05:06:42.781Z,10.15
2022-10-24T05:09:19.889Z,10.11
2022-10-24T05:11:58.712Z,10.11
2022-10-24T05:14:34.554Z,10.11
2022-10-24T05:17:09.166Z,10.12
2022-10-24T05:19:43.117Z,10.09
2022-10-24T05:22:17.327Z,10.07
2022-10-24T05:24:52.442Z,10.08
2022-10-24T05:27:27.116Z,10.06
2022-10-24T05:30:01.670Z,10.04
2022-10-24T05:32:38.802Z,10.03
2022-10-24T05:35:14.870Z,10.04
2022-10-24T05:37:48.814Z,10.05
2022-10-24T05:40:22.798Z,10.07
2022-10-24T05:42:56.620Z,10.07
2022-10-24T05:45:30.859Z,10.08
2022-10-24T05:48:04.878Z,10.10
2022-10-24T05:50:39.795Z,10.09
2022-10-24T05:53:13.926Z,10.08
2022-10-24T05:55:47.929Z,10.05
2022-10-24T05:58:23.619Z,10.07
2022-10-24T06:00:57.816Z,10.10
2022-10-24T06:03:32.126Z,10.13
2022-10-24T06:06:31.800Z,10.14
2022-10-24T06:09:12.448Z,10.18
2022-10-24T06:11:47.801Z,10.23
2022-10-24T06:14:22.248Z,10.29
2022-10-24T06:16:57.803Z,10.34
2022-10-24T06:19:32.689Z,10.39
2022-10-24T06:22:07.622Z,10.44
2022-10-24T06:24:43.137Z,10.49
2022-10-24T06:27:18.803Z,10.55
2022-10-24T06:29:53.989Z,10.60
2022-10-24T06:32:28.694Z,10.64
2022-10-24T06:35:07.313Z,10.68
2022-10-24T06:37:44.480Z,10.69
2022-10-24T06:40:22.740Z,10.74
2022-10-24T06:42:58.492Z,10.76
2022-10-24T06:45:33.564Z,10.80
2022-10-24T06:48:08.464Z,10.84
2022-10-24T06:50:43.647Z,10.90
2022-10-24T06:53:18.417Z,10.95
2022-10-24T06:55:53.199Z,11.00
2022-10-24T06:58:36.817Z,11.04
2022-10-24T07:01:14.824Z,11.10
2022-10-24T07:03:50.367Z,11.17
2022-10-24T07:06:27.303Z,11.25
2022-10-24T07:09:03.640Z,11.31
2022-10-24T07:11:38.693Z,11.37
2022-10-24T07:14:13.843Z,11.44
2022-10-24T07:16:48.438Z,11.52
2022-10-24T07:19:22.956Z,11.56
2022-10-24T07:22:01.004Z,11.56
2022-10-24T07:24:36.291Z,11.58
2022-10-24T07:27:10.953Z,11.66
2022-10-24T07:29:49.263Z,11.77
2022-10-24T07:32:23.994Z,11.85
2022-10-24T07:34:58.842Z,11.96
2022-10-24T07:37:53.208Z,12.07
2022-10-24T07:40:28.037Z,12.11
2022-10-24T07:43:05.701Z,12.17
2022-10-24T07:45:40.393Z,12.21
2022-10-24T07:48:15.145Z,12.26
2022-10-24T07:50:50.693Z,12.33
2022-10-24T07:53:28.431Z,12.39
2022-10-24T07:56:04.048Z,12.44
2022-10-24T07:58:40.232Z,12.53
2022-10-24T08:01:18.025Z,12.63
2022-10-24T08:03:52.917Z,12.75
2022-10-24T08:06:31.660Z,12.91
2022-10-24T08:09:06.206Z,13.06
2022-10-24T08:11:41.999Z,13.34
2022-10-24T08:14:16.684Z,13.69
2022-10-24T08:16:51.817Z,13.97
2022-10-24T08:22:06.276Z,14.53
2022-10-24T08:24:40.243Z,14.72
2022-10-24T08:27:15.493Z,14.87
2022-10-24T08:29:49.188Z,14.90
2022-10-24T08:32:22.959Z,14.92
2022-10-24T08:34:56.338Z,14.92
2022-10-24T08:37:28.515Z,14.99
2022-10-24T08:40:02.086Z,15.02
2022-10-24T08:42:38.387Z,15.14
2022-10-24T08:45:39.499Z,15.30
2022-10-24T08:48:16.960Z,15.37
2022-10-24T08:50:56.175Z,15.45
2022-10-24T08:53:33.815Z,15.45
2022-10-24T08:56:08.913Z,15.52
2022-10-24T08:58:47.713Z,15.54
2022-10-24T09:01:32.007Z,15.59
2022-10-24T09:04:12.697Z,15.65
2022-10-24T09:06:51.319Z,15.71
2022-10-24T09:09:32.759Z,15.75
2022-10-24T09:12:11.774Z,15.82
2022-10-24T09:14:48.230Z,15.86
2022-10-24T09:17:26.026Z,15.93
2022-10-24T09:20:01.882Z,15.99
2022-10-24T09:22:40.791Z,16.03
2022-10-24T09:25:23.282Z,16.06
2022-10-24T09:27:57.883Z,16.10
2022-10-24T09:30:34.334Z,16.07
2022-10-24T09:33:18.049Z,16.14
2022-10-24T09:35:51.896Z,16.12
2022-10-24T09:38:38.216Z,16.06
2022-10-24T09:41:22.165Z,16.13
2022-10-24T09:43:58.817Z,16.21
2022-10-24T09:46:46.203Z,16.26
2022-10-24T09:49:26.069Z,16.28
2022-10-24T09:52:08.490Z,16.33
2022-10-24T09:54:43.398Z,16.35
2022-10-24T09:57:22.509Z,16.36
2022-10-24T10:00:04.205Z,16.37
2022-10-24T10:02:39.505Z,16.52
2022-10-24T10:05:23.541Z,16.61
2022-10-24T10:07:58.084Z,16.63
2022-10-24T10:10:38.596Z,16.63
2022-10-24T10:13:25.058Z,16.64
2022-10-24T10:16:01.635Z,16.57
2022-10-24T10:18:46.378Z,16.54
2022-10-24T10:21:22.612Z,16.55
2022-10-24T10:24:00.111Z,16.56
2022-10-24T10:26:46.041Z,16.50
2022-10-24T10:29:28.176Z,16.45
2022-10-24T10:32:12.670Z,16.38
2022-10-24T10:34:53.694Z,16.34
2022-10-24T10:37:32.027Z,16.34
2022-10-24T10:40:23.748Z,16.37
2022-10-24T10:43:21.871Z,16.44
2022-10-24T10:46:13.724Z,16.50
2022-10-24T10:49:04.049Z,16.54
2022-10-24T10:51:46.797Z,16.61
2022-10-24T10:54:58.113Z,16.62
2022-10-24T10:57:40.489Z,16.64
2022-10-24T11:00:27.504Z,16.66
2022-10-24T11:03:20.607Z,16.68
2022-10-24T11:06:07.728Z,16.70
2022-10-24T11:08:59.616Z,16.75
2022-10-24T11:11:38.832Z,16.80
2022-10-24T11:14:25.640Z,16.84
2022-10-24T11:17:03.791Z,16.88
2022-10-24T11:19:52.767Z,16.91
2022-10-24T11:22:46.214Z,16.94
2022-10-24T11:25:27.382Z,16.97
2022-10-24T11:28:09.686Z,16.96
2022-10-24T11:30:52.643Z,17.02
2022-10-24T11:33:30.525Z,17.12
2022-10-24T11:36:19.509Z,17.23
2022-10-24T11:39:00.494Z,17.29
2022-10-24T11:41:48.206Z,17.39
2022-10-24T11:44:36.547Z,17.50
2022-10-24T11:47:41.497Z,17.63
2022-10-24T11:50:28.852Z,17.96
2022-10-24T11:53:15.808Z,18.15
2022-10-24T11:55:56.371Z,18.33
2022-10-24T11:58:35.424Z,18.55
2022-10-24T12:01:48.057Z,18.68
2022-10-24T12:04:47.010Z,18.86
2022-10-24T12:07:47.671Z,18.99
2022-10-24T12:10:37.252Z,19.16
2022-10-24T12:13:37.835Z,19.35
2022-10-24T12:16:22.191Z,19.49
2022-10-24T12:19:00.458Z,19.59
2022-10-24T12:21:44.415Z,19.73
2022-10-24T12:24:33.707Z,19.84
2022-10-24T12:27:11.312Z,19.91
2022-10-24T12:29:47.704Z,19.98
2022-10-24T12:32:40.797Z,20.06
2022-10-24T12:35:48.567Z,20.13
2022-10-24T12:39:10.313Z,20.12
2022-10-24T12:41:46.620Z,20.17
2022-10-24T12:44:53.077Z,20.21
2022-10-24T12:47:44.530Z,20.22
2022-10-24T12:51:04.597Z,20.19
2022-10-24T12:53:41.577Z,20.27
2022-10-24T12:59:06.943Z,20.39
2022-10-24T13:01:43.858Z,20.40
2022-10-24T13:04:53.445Z,20.46
2022-10-24T13:07:53.789Z,20.41
2022-10-24T13:10:54.323Z,20.41
2022-10-24T13:13:57.456Z,20.31
2022-10-24T13:16:42.133Z,20.38
2022-10-24T13:19:20.153Z,20.46
2022-10-24T13:21:56.236Z,20.51
2022-10-24T13:24:37.827Z,20.51
2022-10-24T13:27:32.698Z,20.45
2022-10-24T13:30:36.335Z,20.47
2022-10-24T13:33:42.572Z,20.33
2022-10-24T13:36:27.905Z,20.39
2022-10-24T13:39:05.569Z,20.42
2022-10-24T13:41:42.867Z,20.50
2022-10-24T13:44:27.662Z,20.53
2022-10-24T13:47:10.809Z,20.52
2022-10-24T13:49:50.566Z,20.47
2022-10-24T13:52:29.204Z,20.41
2022-10-24T13:55:07.540Z,20.38
2022-10-24T13:57:54.713Z,20.35
2022-10-24T14:00:35.433Z,20.33
2022-10-24T14:03:16.378Z,20.35
2022-10-24T14:05:53.547Z,20.42
2022-10-24T14:08:56.049Z,20.45
2022-10-24T14:11:36.298Z,20.47
2022-10-24T14:14:28.978Z,20.45
2022-10-24T14:17:23.853Z,20.39
2022-10-24T14:20:01.672Z,20.28
2022-10-24T14:22:42.894Z,20.24
2022-10-24T14:25:30.615Z,20.13
2022-10-24T14:28:11.795Z,20.03
2022-10-24T14:30:57.615Z,19.94
2022-10-24T14:33:33.403Z,19.83
2022-10-24T14:36:30.568Z,19.69
2022-10-24T14:39:05.777Z,19.61
2022-10-24T14:41:44.055Z,19.57
2022-10-24T14:44:21.694Z,19.55
2022-10-24T14:47:18.294Z,19.52
2022-10-24T14:49:56.320Z,19.43
2022-10-24T14:52:37.594Z,19.35
2022-10-24T14:55:23.078Z,19.22
2022-10-24T14:57:59.332Z,19.09
2022-10-24T15:00:41.828Z,18.98
2022-10-24T15:03:17.225Z,18.88
2022-10-24T15:06:13.663Z,18.82
2022-10-24T15:09:07.867Z,18.73
2022-10-24T15:11:43.907Z,18.57
2022-10-24T15:14:49.822Z,18.47
2022-10-24T15:17:33.248Z,18.35
2022-10-24T15:20:09.067Z,18.30
2022-10-24T15:22:43.565Z,18.17
2022-10-24T15:25:25.301Z,18.13
2022-10-24T15:28:01.645Z,18.04
2022-10-24T15:30:38.581Z,17.95
2022-10-24T15:33:13.965Z,17.88
2022-10-24T15:35:48.357Z,17.73
2022-10-24T15:38:25.762Z,17.52
2022-10-24T15:41:02.342Z,17.48
2022-10-24T15:43:36.863Z,17.44
2022-10-24T15:46:11.212Z,17.33
2022-10-24T15:48:45.902Z,17.27
2022-10-24T15:51:22.212Z,17.17
2022-10-24T15:53:55.939Z,17.08
2022-10-24T15:56:30.503Z,17.01
2022-10-24T15:59:05.622Z,16.94
2022-10-24T16:01:45.342Z,16.84
2022-10-24T16:04:21.194Z,16.77
2022-10-24T16:06:56.428Z,16.74
2022-10-24T16:09:32.043Z,16.69
2022-10-24T16:12:06.533Z,16.64
2022-10-24T16:14:40.501Z,16.58
2022-10-24T16:17:14.682Z,16.47
2022-10-24T16:19:49.055Z,16.43
2022-10-24T16:22:41.912Z,16.41
2022-10-24T16:25:21.567Z,16.38
2022-10-24T16:27:56.250Z,16.35
2022-10-24T16:30:34.652Z,16.33
2022-10-24T16:33:10.718Z,16.27
2022-10-24T16:35:45.230Z,16.21
2022-10-24T16:38:21.068Z,16.15
2022-10-24T16:40:54.850Z,16.08
2022-10-24T16:43:31.221Z,16.04
2022-10-24T16:46:06.404Z,16.00
2022-10-24T16:48:42.538Z,15.94
2022-10-24T16:51:21.609Z,15.91
2022-10-24T16:53:56.826Z,15.88
2022-10-24T16:56:30.841Z,15.85
2022-10-24T16:59:05.041Z,15.83
2022-10-24T17:01:41.726Z,15.80
2022-10-24T17:04:18.047Z,15.76
2022-10-24T17:06:56.092Z,15.73
2022-10-24T17:09:32.032Z,15.68
2022-10-24T17:12:34.047Z,15.63
2022-10-24T17:15:19.440Z,15.60
2022-10-24T17:18:00.300Z,15.57
2022-10-24T17:20:40.100Z,15.53
2022-10-24T17:23:20.969Z,15.49
2022-10-24T17:26:00.571Z,15.44
2022-10-24T17:28:37.819Z,15.40
2022-10-24T17:31:13.533Z,15.37
2022-10-24T17:33:52.539Z,15.34
2022-10-24T17:36:36.572Z,15.30
2022-10-24T17:39:15.475Z,15.27
2022-10-24T17:41:50.434Z,15.24
2022-10-24T17:44:25.076Z,15.21
2022-10-24T17:46:59.709Z,15.19
2022-10-24T17:49:34.069Z,15.16
2022-10-24T17:52:09.882Z,15.13
2022-10-24T17:54:45.980Z,15.05
2022-10-24T17:57:20.511Z,15.00
2022-10-24T17:59:56.978Z,14.94
2022-10-24T18:02:31.072Z,14.85
2022-10-24T18:05:05.275Z,14.84
2022-10-24T18:07:40.848Z,14.76
2022-10-24T18:10:15.702Z,14.78
2022-10-24T18:12:53.547Z,14.73
2022-10-24T18:15:27.805Z,14.73
2022-10-24T18:18:01.779Z,14.67
2022-10-24T18:20:37.310Z,14.60
2022-10-24T18:23:14.783Z,14.56
2022-10-24T18:25:49.734Z,14.50
2022-10-24T18:28:24.174Z,14.45
2022-10-24T18:30:58.856Z,14.44
2022-10-24T18:33:34.382Z,14.41
2022-10-24T18:36:14.864Z,14.39
2022-10-24T18:38:49.367Z,14.35
2022-10-24T18:41:38.130Z,14.31
2022-10-24T18:44:27.283Z,14.24
2022-10-24T18:47:04.981Z,14.15
2022-10-24T18:49:41.562Z,14.11
2022-10-24T18:52:40.167Z,14.09
2022-10-24T18:55:19.988Z,14.07
2022-10-24T18:57:55.748Z,14.06
2022-10-24T19:00:31.536Z,14.08
2022-10-24T19:03:19.531Z,14.06
2022-10-24T19:06:01.985Z,14.09
2022-10-24T19:08:36.829Z,14.09
2022-10-24T19:11:14.976Z,14.12
2022-10-24T19:13:54.350Z,14.15
2022-10-24T19:16:31.688Z,14.17
2022-10-24T19:19:08.379Z,14.17
2022-10-24T19:21:44.316Z,14.18
2022-10-24T19:24:24.312Z,14.18
2022-10-24T19:26:59.743Z,14.20
2022-10-24T19:29:34.405Z,14.21
2022-10-24T19:32:08.896Z,14.23
2022-10-24T19:34:44.805Z,14.22
2022-10-24T19:37:20.178Z,14.22
2022-10-24T19:39:54.931Z,14.22
2022-10-24T19:42:30.367Z,14.22
2022-10-24T19:45:06.716Z,14.20
2022-10-24T19:47:41.712Z,14.17
2022-10-24T19:50:16.742Z,14.11
2022-10-24T19:52:50.931Z,14.12
2022-10-24T19:55:26.238Z,14.09
2022-10-24T19:58:01.549Z,14.07
2022-10-24T20:00:37.047Z,14.01
2022-10-24T20:03:12.783Z,14.02
2022-10-24T20:05:47.911Z,14.03
2022-10-24T20:08:22.054Z,14.02
2022-10-24T20:10:57.510Z,14.00
2022-10-24T20:13:32.168Z,14.00
2022-10-24T20:16:08.301Z,13.98
2022-10-24T20:18:43.999Z,14.00
2022-10-24T20:21:20.870Z,14.01
2022-10-24T20:23:54.725Z,14.01
2022-10-24T20:26:29.880Z,14.02
2022-10-24T20:29:04.091Z,14.02
2022-10-24T20:31:40.892Z,14.02
2022-10-24T20:34:20.005Z,14.02
2022-10-24T20:36:54.746Z,14.02
2022-10-24T20:39:29.438Z,14.03
2022-10-24T20:42:03.231Z,14.04
2022-10-24T20:44:36.948Z,14.04
2022-10-24T20:47:10.646Z,14.04
2022-10-24T20:49:44.773Z,14.05
2022-10-24T20:52:19.139Z,14.06
2022-10-24T20:54:54.273Z,14.06
2022-10-24T20:57:28.173Z,14.06
2022-10-24T21:00:03.611Z,14.05
2022-10-24T21:02:37.836Z,14.02
2022-10-24T21:05:12.645Z,14.02
2022-10-24T21:07:50.351Z,14.04
2022-10-24T21:10:25.159Z,14.07
2022-10-24T21:12:59.287Z,14.09
2022-10-24T21:15:33.228Z,14.12
2022-10-24T21:18:07.018Z,14.12
2022-10-24T21:20:41.017Z,14.13
2022-10-24T21:23:16.549Z,14.16
2022-10-24T21:25:51.997Z,14.17
2022-10-24T21:28:26.420Z,14.17
2022-10-24T21:31:05.012Z,14.17
2022-10-24T21:33:40.366Z,14.17
2022-10-24T21:36:19.989Z,14.16
2022-10-24T21:38:55.266Z,14.16
2022-10-24T21:41:31.331Z,14.16
2022-10-24T21:44:05.008Z,14.15
2022-10-24T21:46:39.100Z,14.17
2022-10-24T21:49:14.483Z,14.18
2022-10-24T21:51:48.410Z,14.17
2022-10-24T21:54:23.940Z,14.18
2022-10-24T21:56:57.917Z,14.20
2022-10-24T21:59:33.505Z,14.21
2022-10-24T22:02:08.073Z,14.23
2022-10-24T22:04:42.103Z,14.23
2022-10-24T22:07:16.363Z,14.24
2022-10-24T22:09:50.513Z,14.24
2022-10-24T22:12:25.282Z,14.21
2022-10-24T22:14:59.618Z,14.20
2022-10-24T22:17:33.630Z,14.16
2022-10-24T22:20:08.875Z,14.15
2022-10-24T22:22:43.366Z,14.12
2022-10-24T22:25:17.793Z,14.09
2022-10-24T22:27:51.909Z,14.09
2022-10-24T22:30:25.764Z,14.09
2022-10-24T22:33:01.098Z,14.09
2022-10-24T22:35:36.564Z,14.09
2022-10-24T22:38:11.570Z,14.08
2022-10-24T22:40:47.351Z,14.07
2022-10-24T22:43:22.999Z,14.06
2022-10-24T22:46:05.720Z,14.05
2022-10-24T22:48:46.028Z,14.04
2022-10-24T22:51:22.343Z,14.04
2022-10-24T22:53:57.292Z,14.06
2022-10-24T22:56:34.344Z,14.08
2022-10-24T22:59:08.979Z,14.10
2022-10-24T23:02:02.006Z,14.13
2022-10-24T23:04:41.249Z,14.14
2022-10-24T23:07:27.712Z,14.14
2022-10-24T23:10:01.960Z,14.14
2022-10-24T23:12:36.935Z,14.11
2022-10-24T23:15:18.226Z,14.11
2022-10-24T23:17:54.176Z,14.07
2022-10-24T23:20:35.759Z,14.03
2022-10-24T23:23:17.184Z,14.03
2022-10-24T23:26:10.666Z,14.01
2022-10-24T23:28:52.291Z,14.00
2022-10-24T23:31:28.382Z,13.98
2022-10-24T23:34:04.484Z,13.99
2022-10-24T23:36:40.357Z,13.99
2022-10-24T23:39:17.016Z,13.97
2022-10-24T23:42:00.103Z,13.96
2022-10-24T23:44:35.283Z,13.95
2022-10-24T23:47:15.905Z,13.97
2022-10-24T23:49:55.105Z,13.98
2022-10-24T23:52:33.637Z,13.99
2022-10-24T23:55:11.364Z,13.99
2022-10-24T23:57:45.904Z,13.99
